sensor_id;sensor_type;location;lat;lon;timestamp;pressure;altitude;pressure_sealevel;temperature;humidity
60307;BME280;46155;52.364;6.580;2023-06-19T03:01:11;100616.94;;;22.00;68.60
60307;BME280;46155;52.364;6.580;2023-06-19T03:03:36;100614.28;;;22.00;68.50
60307;BME280;46155;52.364;6.580;2023-06-19T03:06:05;100621.34;;;21.97;69.22
60307;BME280;46155;52.364;6.580;2023-06-19T03:08:33;100620.47;;;21.96;68.93
60307;BME280;46155;52.364;6.580;2023-06-19T03:10:58;100615.97;;;21.92;69.08
60307;BME280;46155;52.364;6.580;2023-06-19T03:13:24;100623.97;;;21.91;69.78
60307;BME280;46155;52.364;6.580;2023-06-19T03:15:50;100625.69;;;21.87;69.65
60307;BME280;46155;52.364;6.580;2023-06-19T03:18:15;100630.16;;;21.88;70.06
60307;BME280;46155;52.364;6.580;2023-06-19T03:20:40;100629.31;;;21.89;70.06
60307;BME280;46155;52.364;6.580;2023-06-19T03:23:06;100633.72;;;21.87;69.90
60307;BME280;46155;52.364;6.580;2023-06-19T03:25:31;100630.13;;;21.85;70.51
60307;BME280;46155;52.364;6.580;2023-06-19T03:28:01;100635.47;;;21.83;70.23
60307;BME280;46155;52.364;6.580;2023-06-19T03:30:27;100639.00;;;21.81;70.36
60307;BME280;46155;52.364;6.580;2023-06-19T03:32:52;100641.66;;;21.79;70.39
60307;BME280;46155;52.364;6.580;2023-06-19T03:37:43;100648.69;;;21.73;70.53
60307;BME280;46155;52.364;6.580;2023-06-19T03:40:08;100647.78;;;21.69;71.69
60307;BME280;46155;52.364;6.580;2023-06-19T03:42:38;100652.13;;;21.62;71.50
60307;BME280;46155;52.364;6.580;2023-06-19T03:45:04;100650.34;;;21.63;71.26
60307;BME280;46155;52.364;6.580;2023-06-19T03:47:29;100647.66;;;21.61;71.83
60307;BME280;46155;52.364;6.580;2023-06-19T03:49:55;100641.38;;;21.56;72.06
60307;BME280;46155;52.364;6.580;2023-06-19T03:52:20;100652.09;;;21.59;72.21
60307;BME280;46155;52.364;6.580;2023-06-19T03:54:45;100654.75;;;21.58;72.45
60307;BME280;46155;52.364;6.580;2023-06-19T03:57:10;100654.59;;;21.50;72.70
60307;BME280;46155;52.364;6.580;2023-06-19T03:59:36;100648.31;;;21.46;73.12
60307;BME280;46155;52.364;6.580;2023-06-19T04:02:01;100655.38;;;21.41;73.48
60307;BME280;46155;52.364;6.580;2023-06-19T04:04:26;100652.59;;;21.33;73.73
60307;BME280;46155;52.364;6.580;2023-06-19T04:06:52;100657.94;;;21.33;73.31
60307;BME280;46155;52.364;6.580;2023-06-19T04:09:17;100668.56;;;21.30;73.57
60307;BME280;46155;52.364;6.580;2023-06-19T04:11:42;100664.94;;;21.25;74.37
60307;BME280;46155;52.364;6.580;2023-06-19T04:14:07;100669.34;;;21.25;75.35
60307;BME280;46155;52.364;6.580;2023-06-19T04:16:33;100666.66;;;21.23;75.12
60307;BME280;46155;52.364;6.580;2023-06-19T04:18:58;100667.50;;;21.19;75.25
60307;BME280;46155;52.364;6.580;2023-06-19T04:21:23;100679.94;;;21.19;75.17
60307;BME280;46155;52.364;6.580;2023-06-19T04:23:49;100675.47;;;21.16;75.71
60307;BME280;46155;52.364;6.580;2023-06-19T04:26:15;100686.13;;;21.16;75.88
60307;BME280;46155;52.364;6.580;2023-06-19T04:28:40;100692.31;;;21.13;76.53
60307;BME280;46155;52.364;6.580;2023-06-19T04:31:07;100691.38;;;21.10;77.29
60307;BME280;46155;52.364;6.580;2023-06-19T04:33:32;100699.25;;;21.02;78.13
60307;BME280;46155;52.364;6.580;2023-06-19T04:35:58;100687.66;;;20.98;78.40
60307;BME280;46155;52.364;6.580;2023-06-19T04:38:24;100693.91;;;21.01;78.82
60307;BME280;46155;52.364;6.580;2023-06-19T04:40:50;100700.13;;;21.00;79.52
60307;BME280;46155;52.364;6.580;2023-06-19T04:43:16;100707.19;;;20.97;79.63
60307;BME280;46155;52.364;6.580;2023-06-19T04:45:41;100707.25;;;21.01;79.71
60307;BME280;46155;52.364;6.580;2023-06-19T04:48:07;100708.94;;;20.94;80.75
60307;BME280;46155;52.364;6.580;2023-06-19T04:50:33;100710.63;;;20.90;81.16
60307;BME280;46155;52.364;6.580;2023-06-19T04:52:58;100704.50;;;20.96;81.25
60307;BME280;46155;52.364;6.580;2023-06-19T04:55:23;100705.38;;;20.96;81.59
60307;BME280;46155;52.364;6.580;2023-06-19T04:57:50;100697.34;;;20.95;81.76
60307;BME280;46155;52.364;6.580;2023-06-19T05:00:16;100710.69;;;20.93;82.12
60307;BME280;46155;52.364;6.580;2023-06-19T05:02:44;100708.81;;;20.88;83.11
60307;BME280;46155;52.364;6.580;2023-06-19T05:05:12;100715.97;;;20.90;83.51
60307;BME280;46155;52.364;6.580;2023-06-19T05:07:38;100719.47;;;20.86;83.58
60307;BME280;46155;52.364;6.580;2023-06-19T05:10:03;100715.97;;;20.90;83.62
60307;BME280;46155;52.364;6.580;2023-06-19T05:12:28;100721.34;;;20.92;84.06
60307;BME280;46155;52.364;6.580;2023-06-19T05:14:54;100725.84;;;20.94;84.20
60307;BME280;46155;52.364;6.580;2023-06-19T05:17:19;100730.28;;;20.94;84.23
60307;BME280;46155;52.364;6.580;2023-06-19T05:19:44;100733.88;;;20.97;84.31
60307;BME280;46155;52.364;6.580;2023-06-19T05:22:10;100732.94;;;20.94;84.62
60307;BME280;46155;52.364;6.580;2023-06-19T05:24:35;100738.25;;;20.92;85.12
60307;BME280;46155;52.364;6.580;2023-06-19T05:27:00;100735.63;;;20.94;85.74
60307;BME280;46155;52.364;6.580;2023-06-19T05:29:25;100737.41;;;20.96;85.42
60307;BME280;46155;52.364;6.580;2023-06-19T05:31:51;100732.97;;;20.95;85.85
60307;BME280;46155;52.364;6.580;2023-06-19T05:34:16;100741.88;;;20.97;86.11
60307;BME280;46155;52.364;6.580;2023-06-19T05:36:42;100739.22;;;20.97;86.37
60307;BME280;46155;52.364;6.580;2023-06-19T05:39:10;100741.91;;;20.99;86.15
60307;BME280;46155;52.364;6.580;2023-06-19T05:41:35;100741.03;;;20.98;86.67
60307;BME280;46155;52.364;6.580;2023-06-19T05:44:01;100733.88;;;20.97;86.16
60307;BME280;46155;52.364;6.580;2023-06-19T05:46:26;100736.63;;;21.02;86.61
60307;BME280;46155;52.364;6.580;2023-06-19T05:48:52;100733.03;;;20.98;87.28
60307;BME280;46155;52.364;6.580;2023-06-19T05:51:19;100746.44;;;21.05;87.14
60307;BME280;46155;52.364;6.580;2023-06-19T05:53:44;100749.16;;;21.08;87.00
60307;BME280;46155;52.364;6.580;2023-06-19T05:56:10;100740.28;;;21.07;86.80
60307;BME280;46155;52.364;6.580;2023-06-19T05:58:36;100753.59;;;21.06;86.95
60307;BME280;46155;52.364;6.580;2023-06-19T06:01:01;100749.97;;;21.02;87.00
60307;BME280;46155;52.364;6.580;2023-06-19T06:03:28;100764.22;;;21.03;86.95
60307;BME280;46155;52.364;6.580;2023-06-19T06:05:55;100754.44;;;21.03;87.53
60307;BME280;46155;52.364;6.580;2023-06-19T06:08:30;100750.84;;;21.00;88.43
60307;BME280;46155;52.364;6.580;2023-06-19T06:10:55;100760.78;;;21.10;87.26
60307;BME280;46155;52.364;6.580;2023-06-19T06:13:21;100763.47;;;21.10;87.90
60307;BME280;46155;52.364;6.580;2023-06-19T06:15:46;100760.78;;;21.10;88.42
60307;BME280;46155;52.364;6.580;2023-06-19T06:18:12;100771.50;;;21.13;87.77
60307;BME280;46155;52.364;6.580;2023-06-19T06:20:37;100774.19;;;21.13;88.38
60307;BME280;46155;52.364;6.580;2023-06-19T06:23:02;100777.72;;;21.12;88.96
60307;BME280;46155;52.364;6.580;2023-06-19T06:25:28;100774.09;;;21.08;88.58
60307;BME280;46155;52.364;6.580;2023-06-19T06:27:53;100784.75;;;21.07;89.17
60307;BME280;46155;52.364;6.580;2023-06-19T06:30:19;100791.97;;;21.12;88.94
60307;BME280;46155;52.364;6.580;2023-06-19T06:32:44;100785.72;;;21.12;89.15
60307;BME280;46155;52.364;6.580;2023-06-19T06:35:09;100793.78;;;21.15;88.29
60307;BME280;46155;52.364;6.580;2023-06-19T06:37:35;100793.09;;;21.25;87.12
60307;BME280;46155;52.364;6.580;2023-06-19T06:40:00;100796.63;;;21.24;88.73
60307;BME280;46155;52.364;6.580;2023-06-19T06:42:25;100799.34;;;21.27;88.98
60307;BME280;46155;52.364;6.580;2023-06-19T06:44:51;100804.69;;;21.29;89.03
60307;BME280;46155;52.364;6.580;2023-06-19T06:47:16;100801.97;;;21.26;90.64
60307;BME280;46155;52.364;6.580;2023-06-19T06:49:41;100809.97;;;21.24;89.78
60307;BME280;46155;52.364;6.580;2023-06-19T06:52:07;100809.84;;;21.17;90.15
60307;BME280;46155;52.364;6.580;2023-06-19T06:54:32;100816.81;;;21.08;90.79
60307;BME280;46155;52.364;6.580;2023-06-19T06:56:58;100814.97;;;21.06;91.52
60307;BME280;46155;52.364;6.580;2023-06-19T06:59:25;100815.84;;;21.05;91.58
60307;BME280;46155;52.364;6.580;2023-06-19T07:01:52;100810.47;;;21.02;92.62
60307;BME280;46155;52.364;6.580;2023-06-19T07:04:18;100816.78;;;21.07;92.41
60307;BME280;46155;52.364;6.580;2023-06-19T07:06:43;100820.28;;;21.03;91.43
60307;BME280;46155;52.364;6.580;2023-06-19T07:09:09;100821.97;;;20.99;91.89
60307;BME280;46155;52.364;6.580;2023-06-19T07:11:34;100832.69;;;21.02;91.82
60307;BME280;46155;52.364;6.580;2023-06-19T07:14:02;100831.84;;;21.05;92.62
60307;BME280;46155;52.364;6.580;2023-06-19T07:16:28;100833.75;;;21.10;92.65
60307;BME280;46155;52.364;6.580;2023-06-19T07:18:53;100839.09;;;21.12;92.16
60307;BME280;46155;52.364;6.580;2023-06-19T07:21:19;100837.38;;;21.14;93.47
60307;BME280;46155;52.364;6.580;2023-06-19T07:23:45;100846.38;;;21.21;92.47
60307;BME280;46155;52.364;6.580;2023-06-19T07:26:11;100844.66;;;21.24;92.63
60307;BME280;46155;52.364;6.580;2023-06-19T07:28:36;100844.63;;;21.21;91.39
60307;BME280;46155;52.364;6.580;2023-06-19T07:31:02;100853.53;;;21.23;92.47
60307;BME280;46155;52.364;6.580;2023-06-19T07:33:29;100849.13;;;21.24;91.67
60307;BME280;46155;52.364;6.580;2023-06-19T07:35:55;100839.44;;;21.30;91.94
60307;BME280;46155;52.364;6.580;2023-06-19T07:38:20;100841.25;;;21.33;92.42
60307;BME280;46155;52.364;6.580;2023-06-19T07:40:45;100856.50;;;21.39;91.63
60307;BME280;46155;52.364;6.580;2023-06-19T07:43:11;100846.84;;;21.47;90.96
60307;BME280;46155;52.364;6.580;2023-06-19T07:45:36;100854.03;;;21.51;90.78
60307;BME280;46155;52.364;6.580;2023-06-19T07:48:01;100850.47;;;21.50;90.36
60307;BME280;46155;52.364;6.580;2023-06-19T07:50:27;100854.84;;;21.45;89.67
60307;BME280;46155;52.364;6.580;2023-06-19T07:52:52;100852.97;;;21.41;90.32
60307;BME280;46155;52.364;6.580;2023-06-19T07:55:18;100852.09;;;21.41;89.52
60307;BME280;46155;52.364;6.580;2023-06-19T07:57:43;100856.53;;;21.42;88.85
60307;BME280;46155;52.364;6.580;2023-06-19T08:00:09;100863.72;;;21.46;89.73
60307;BME280;46155;52.364;6.580;2023-06-19T08:02:38;100864.66;;;21.48;89.17
60307;BME280;46155;52.364;6.580;2023-06-19T08:05:04;100864.66;;;21.48;88.34
60307;BME280;46155;52.364;6.580;2023-06-19T08:07:29;100865.53;;;21.47;88.92
60307;BME280;46155;52.364;6.580;2023-06-19T08:09:55;100872.72;;;21.49;88.50
60307;BME280;46155;52.364;6.580;2023-06-19T08:12:20;100881.56;;;21.47;88.85
60307;BME280;46155;52.364;6.580;2023-06-19T08:14:45;100877.00;;;21.40;88.37
60307;BME280;46155;52.364;6.580;2023-06-19T08:17:11;100881.47;;;21.41;88.99
60307;BME280;46155;52.364;6.580;2023-06-19T08:19:36;100879.69;;;21.41;89.13
60307;BME280;46155;52.364;6.580;2023-06-19T08:22:04;100884.13;;;21.41;88.88
60307;BME280;46155;52.364;6.580;2023-06-19T08:24:29;100890.41;;;21.44;89.30
60307;BME280;46155;52.364;6.580;2023-06-19T08:26:54;100890.34;;;21.40;89.87
60307;BME280;46155;52.364;6.580;2023-06-19T08:29:20;100902.00;;;21.45;89.76
60307;BME280;46155;52.364;6.580;2023-06-19T08:31:45;100902.09;;;21.49;90.03
60307;BME280;46155;52.364;6.580;2023-06-19T08:34:11;100904.00;;;21.55;89.71
60307;BME280;46155;52.364;6.580;2023-06-19T08:36:36;100904.03;;;21.58;90.91
60307;BME280;46155;52.364;6.580;2023-06-19T08:39:02;100908.63;;;21.65;88.98
60307;BME280;46155;52.364;6.580;2023-06-19T08:41:27;100904.13;;;21.64;89.05
60307;BME280;46155;52.364;6.580;2023-06-19T08:43:54;100916.69;;;21.70;88.72
60307;BME280;46155;52.364;6.580;2023-06-19T08:46:19;100893.47;;;21.64;88.57
60307;BME280;46155;52.364;6.580;2023-06-19T08:48:45;100908.00;;;21.82;88.50
60307;BME280;46155;52.364;6.580;2023-06-19T08:51:11;100908.19;;;21.94;88.81
60307;BME280;46155;52.364;6.580;2023-06-19T08:53:48;100908.53;;;22.16;87.38
60307;BME280;46155;52.364;6.580;2023-06-19T08:56:15;100906.03;;;22.28;85.81
60307;BME280;46155;52.364;6.580;2023-06-19T08:58:41;100898.06;;;22.31;83.51
60307;BME280;46155;52.364;6.580;2023-06-19T09:01:06;100913.53;;;22.52;84.37
60307;BME280;46155;52.364;6.580;2023-06-19T09:03:31;100917.34;;;22.72;83.10
60307;BME280;46155;52.364;6.580;2023-06-19T09:06:02;100914.91;;;22.90;81.59
60307;BME280;46155;52.364;6.580;2023-06-19T09:08:27;100928.56;;;23.12;78.25
60307;BME280;46155;52.364;6.580;2023-06-19T09:11:00;100926.84;;;23.17;77.48
60307;BME280;46155;52.364;6.580;2023-06-19T09:13:26;100939.28;;;23.12;75.76
60307;BME280;46155;52.364;6.580;2023-06-19T09:15:58;100934.63;;;22.98;76.09
60307;BME280;46155;52.364;6.580;2023-06-19T09:18:25;100942.53;;;22.87;76.33
60307;BME280;46155;52.364;6.580;2023-06-19T09:20:52;100946.78;;;22.72;76.08
60307;BME280;46155;52.364;6.580;2023-06-19T09:23:19;100945.22;;;22.89;75.33
60307;BME280;46155;52.364;6.580;2023-06-19T09:25:53;100938.47;;;23.19;73.17
60307;BME280;46155;52.364;6.580;2023-06-19T09:28:21;100948.63;;;23.49;72.32
60307;BME280;46155;52.364;6.580;2023-06-19T09:33:22;100942.66;;;23.83;69.72
60307;BME280;46155;52.364;6.580;2023-06-19T09:35:49;100937.38;;;23.89;70.47
60307;BME280;46155;52.364;6.580;2023-06-19T09:38:16;100934.81;;;24.03;69.53
60307;BME280;46155;52.364;6.580;2023-06-19T09:40:45;100941.19;;;24.19;68.40
60307;BME280;46155;52.364;6.580;2023-06-19T09:43:11;100933.16;;;24.23;67.15
60307;BME280;46155;52.364;6.580;2023-06-19T09:45:37;100942.16;;;24.33;65.39
60307;BME280;46155;52.364;6.580;2023-06-19T09:48:04;100943.03;;;24.29;65.91
60307;BME280;46155;52.364;6.580;2023-06-19T09:50:32;100941.22;;;24.25;65.66
60307;BME280;46155;52.364;6.580;2023-06-19T09:52:59;100953.72;;;24.20;66.13
60307;BME280;46155;52.364;6.580;2023-06-19T09:55:27;100944.72;;;24.12;66.80
60307;BME280;46155;52.364;6.580;2023-06-19T09:57:56;100943.75;;;24.00;67.03
60307;BME280;46155;52.364;6.580;2023-06-19T10:00:22;100941.06;;;24.03;68.78
60307;BME280;46155;52.364;6.580;2023-06-19T10:02:51;100946.44;;;24.03;66.76
60307;BME280;46155;52.364;6.580;2023-06-19T10:05:28;100944.56;;;23.93;66.61
60307;BME280;46155;52.364;6.580;2023-06-19T10:07:53;100958.06;;;24.05;67.97
60307;BME280;46155;52.364;6.580;2023-06-19T10:10:27;100960.78;;;24.09;67.08
60307;BME280;46155;52.364;6.580;2023-06-19T10:12:58;100969.59;;;23.92;66.11
60307;BME280;46155;52.364;6.580;2023-06-19T10:15:28;100967.59;;;23.76;66.08
60307;BME280;46155;52.364;6.580;2023-06-19T10:18:02;100975.00;;;24.01;66.49
60307;BME280;46155;52.364;6.580;2023-06-19T10:20:32;100980.59;;;24.32;64.03
60307;BME280;46155;52.364;6.580;2023-06-19T10:25:29;100982.72;;;24.80;61.39
60307;BME280;46155;52.364;6.580;2023-06-19T10:27:56;100981.81;;;24.81;60.51
60307;BME280;46155;52.364;6.580;2023-06-19T10:30:22;100975.53;;;24.72;60.81
60307;BME280;46155;52.364;6.580;2023-06-19T10:32:48;100982.72;;;24.80;59.85
60307;BME280;46155;52.364;6.580;2023-06-19T10:35:14;100984.56;;;24.96;60.87
60307;BME280;46155;52.364;6.580;2023-06-19T10:37:41;100992.63;;;24.96;59.12
60307;BME280;46155;52.364;6.580;2023-06-19T10:40:07;101001.63;;;24.98;57.58
60307;BME280;46155;52.364;6.580;2023-06-19T10:42:35;100999.72;;;24.83;57.79
60307;BME280;46155;52.364;6.580;2023-06-19T10:45:05;101005.06;;;24.71;59.82
60307;BME280;46155;52.364;6.580;2023-06-19T10:47:32;100997.94;;;24.81;60.54
60307;BME280;46155;52.364;6.580;2023-06-19T10:49:58;100995.38;;;25.05;58.60
60307;BME280;46155;52.364;6.580;2023-06-19T10:52:23;101006.19;;;25.21;57.94
60307;BME280;46155;52.364;6.580;2023-06-19T10:54:56;101001.69;;;25.27;57.24
60307;BME280;46155;52.364;6.580;2023-06-19T10:57:29;100999.09;;;25.35;57.14
60307;BME280;46155;52.364;6.580;2023-06-19T10:59:54;100991.97;;;25.43;56.65
60307;BME280;46155;52.364;6.580;2023-06-19T11:02:21;101000.03;;;25.47;56.60
60307;BME280;46155;52.364;6.580;2023-06-19T11:04:47;100993.75;;;25.48;56.12
60307;BME280;46155;52.364;6.580;2023-06-19T11:07:12;100996.41;;;25.35;55.97
60307;BME280;46155;52.364;6.580;2023-06-19T11:09:37;100999.97;;;25.39;56.40
60307;BME280;46155;52.364;6.580;2023-06-19T11:12:03;100995.53;;;25.46;56.64
60307;BME280;46155;52.364;6.580;2023-06-19T11:14:32;101006.28;;;25.36;54.90
60307;BME280;46155;52.364;6.580;2023-06-19T11:16:57;101002.59;;;25.22;53.30
60307;BME280;46155;52.364;6.580;2023-06-19T11:19:22;101002.59;;;25.22;56.21
60307;BME280;46155;52.364;6.580;2023-06-19T11:21:52;100995.53;;;25.36;57.41
60307;BME280;46155;52.364;6.580;2023-06-19T11:24:18;101001.81;;;25.48;54.76
60307;BME280;46155;52.364;6.580;2023-06-19T11:26:45;101004.56;;;25.63;55.68
60307;BME280;46155;52.364;6.580;2023-06-19T11:29:23;100999.16;;;25.75;54.12
60307;BME280;46155;52.364;6.580;2023-06-19T11:31:49;100990.22;;;25.83;53.87
60307;BME280;46155;52.364;6.580;2023-06-19T11:34:16;100994.69;;;25.73;53.30
60307;BME280;46155;52.364;6.580;2023-06-19T11:36:42;100995.63;;;25.89;53.66
60307;BME280;46155;52.364;6.580;2023-06-19T11:39:12;101003.69;;;25.93;52.60
60307;BME280;46155;52.364;6.580;2023-06-19T11:41:43;101001.03;;;26.07;53.73
60307;BME280;46155;52.364;6.580;2023-06-19T11:44:09;101000.13;;;26.10;52.99
60307;BME280;46155;52.364;6.580;2023-06-19T11:46:35;101002.81;;;26.15;52.92
60307;BME280;46155;52.364;6.580;2023-06-19T11:49:16;101000.13;;;26.13;52.79
60307;BME280;46155;52.364;6.580;2023-06-19T11:51:43;101010.91;;;26.11;52.44
60307;BME280;46155;52.364;6.580;2023-06-19T11:54:10;100997.41;;;25.96;52.11
60307;BME280;46155;52.364;6.580;2023-06-19T11:56:37;101001.91;;;25.99;52.32
60307;BME280;46155;52.364;6.580;2023-06-19T11:59:02;101004.56;;;25.94;53.11
60307;BME280;46155;52.364;6.580;2023-06-19T12:01:34;100997.38;;;25.90;54.24
60307;BME280;46155;52.364;6.580;2023-06-19T12:04:01;101004.59;;;26.03;54.36
60307;BME280;46155;52.364;6.580;2023-06-19T12:06:27;101010.00;;;26.03;51.75
60307;BME280;46155;52.364;6.580;2023-06-19T12:08:53;101006.38;;;25.89;52.30
60307;BME280;46155;52.364;6.580;2023-06-19T12:11:18;101002.75;;;25.87;51.36
60307;BME280;46155;52.364;6.580;2023-06-19T12:13:44;101013.53;;;25.96;53.63
60307;BME280;46155;52.364;6.580;2023-06-19T12:16:10;100998.34;;;26.03;52.67
60307;BME280;46155;52.364;6.580;2023-06-19T12:18:36;100999.22;;;26.09;53.70
60307;BME280;46155;52.364;6.580;2023-06-19T12:21:01;100997.44;;;26.11;52.06
60307;BME280;46155;52.364;6.580;2023-06-19T12:23:26;100995.66;;;26.20;51.40
60307;BME280;46155;52.364;6.580;2023-06-19T12:25:52;100993.84;;;26.09;48.75
60307;BME280;46155;52.364;6.580;2023-06-19T12:28:17;100999.22;;;26.22;50.64
60307;BME280;46155;52.364;6.580;2023-06-19T12:30:46;101001.91;;;26.29;50.34
60307;BME280;46155;52.364;6.580;2023-06-19T12:33:13;101005.50;;;26.33;49.50
60307;BME280;46155;52.364;6.580;2023-06-19T12:35:40;100997.41;;;26.33;50.28
60307;BME280;46155;52.364;6.580;2023-06-19T12:38:06;101003.72;;;26.37;49.56
60307;BME280;46155;52.364;6.580;2023-06-19T12:40:32;101002.78;;;26.36;48.34
60307;BME280;46155;52.364;6.580;2023-06-19T12:42:57;101002.81;;;26.32;50.11
60307;BME280;46155;52.364;6.580;2023-06-19T12:45:22;101000.13;;;26.27;50.39
60307;BME280;46155;52.364;6.580;2023-06-19T12:47:48;100998.31;;;26.27;49.84
60307;BME280;46155;52.364;6.580;2023-06-19T12:50:13;101007.28;;;26.39;50.44
60307;BME280;46155;52.364;6.580;2023-06-19T12:52:38;101014.41;;;26.52;49.26
60307;BME280;46155;52.364;6.580;2023-06-19T12:55:04;101015.28;;;26.65;50.38
60307;BME280;46155;52.364;6.580;2023-06-19T12:57:29;101009.94;;;26.54;47.95
60307;BME280;46155;52.364;6.580;2023-06-19T12:59:55;101018.03;;;26.45;48.57
60307;BME280;46155;52.364;6.580;2023-06-19T13:02:20;101016.22;;;26.53;49.47
60307;BME280;46155;52.364;6.580;2023-06-19T13:04:45;101024.31;;;26.53;48.92
60307;BME280;46155;52.364;6.580;2023-06-19T13:07:11;101021.63;;;26.50;48.74
60307;BME280;46155;52.364;6.580;2023-06-19T13:09:37;101014.47;;;26.38;47.85
60307;BME280;46155;52.364;6.580;2023-06-19T13:12:02;100996.53;;;26.08;48.83
60307;BME280;46155;52.364;6.580;2023-06-19T13:14:28;101009.97;;;26.00;50.63
60307;BME280;46155;52.364;6.580;2023-06-19T13:16:53;101009.97;;;26.09;50.48
60307;BME280;46155;52.364;6.580;2023-06-19T13:19:18;101016.25;;;26.02;50.02
60307;BME280;46155;52.364;6.580;2023-06-19T13:21:44;101005.50;;;26.02;48.34
60307;BME280;46155;52.364;6.580;2023-06-19T13:24:09;101006.41;;;26.03;47.92
60307;BME280;46155;52.364;6.580;2023-06-19T13:26:35;101018.97;;;26.11;48.61
60307;BME280;46155;52.364;6.580;2023-06-19T13:29:00;101013.56;;;26.19;47.94
60307;BME280;46155;52.364;6.580;2023-06-19T13:31:26;101015.34;;;26.25;48.58
60307;BME280;46155;52.364;6.580;2023-06-19T13:33:51;101012.66;;;26.25;48.60
60307;BME280;46155;52.364;6.580;2023-06-19T13:36:17;101024.34;;;26.27;47.43
60307;BME280;46155;52.364;6.580;2023-06-19T13:38:44;101015.38;;;26.34;47.31
60307;BME280;46155;52.364;6.580;2023-06-19T13:41:10;101018.94;;;26.39;47.01
60307;BME280;46155;52.364;6.580;2023-06-19T13:43:35;101009.97;;;26.34;46.06
60307;BME280;46155;52.364;6.580;2023-06-19T13:46:01;101012.66;;;26.23;46.47
60307;BME280;46155;52.364;6.580;2023-06-19T13:48:30;101001.91;;;26.05;46.03
60307;BME280;46155;52.364;6.580;2023-06-19T13:50:55;101010.91;;;26.08;46.43
60307;BME280;46155;52.364;6.580;2023-06-19T13:53:20;101011.78;;;26.23;48.11
60307;BME280;46155;52.364;6.580;2023-06-19T13:55:46;101012.69;;;26.34;47.91
60307;BME280;46155;52.364;6.580;2023-06-19T13:58:12;100996.53;;;26.31;47.41
60307;BME280;46155;52.364;6.580;2023-06-19T14:00:38;101006.38;;;26.29;46.43
60307;BME280;46155;52.364;6.580;2023-06-19T14:03:03;101002.81;;;26.19;47.24
60307;BME280;46155;52.364;6.580;2023-06-19T14:05:31;100997.44;;;26.08;47.42
60307;BME280;46155;52.364;6.580;2023-06-19T14:07:58;101007.28;;;26.23;47.98
60307;BME280;46155;52.364;6.580;2023-06-19T14:10:23;101011.75;;;26.35;47.73
60307;BME280;46155;52.364;6.580;2023-06-19T14:12:48;101017.16;;;26.38;46.99
60307;BME280;46155;52.364;6.580;2023-06-19T14:15:14;101022.53;;;26.44;46.01
60307;BME280;46155;52.364;6.580;2023-06-19T14:17:39;101022.53;;;26.29;46.71
60307;BME280;46155;52.364;6.580;2023-06-19T14:20:07;101014.47;;;26.12;47.01
60307;BME280;46155;52.364;6.580;2023-06-19T14:22:32;101018.06;;;26.09;47.79
60307;BME280;46155;52.364;6.580;2023-06-19T14:24:58;101014.47;;;26.18;48.39
60307;BME280;46155;52.364;6.580;2023-06-19T14:27:25;101009.09;;;26.27;47.60
60307;BME280;46155;52.364;6.580;2023-06-19T14:29:51;101002.78;;;26.39;48.87
60307;BME280;46155;52.364;6.580;2023-06-19T14:32:18;101002.78;;;26.39;47.19
60307;BME280;46155;52.364;6.580;2023-06-19T14:34:46;101004.59;;;26.33;46.95
60307;BME280;46155;52.364;6.580;2023-06-19T14:37:11;101001.00;;;26.32;46.61
60307;BME280;46155;52.364;6.580;2023-06-19T14:39:36;100997.44;;;26.30;46.86
60307;BME280;46155;52.364;6.580;2023-06-19T14:42:02;101001.00;;;26.32;45.89
60307;BME280;46155;52.364;6.580;2023-06-19T14:44:27;101001.91;;;26.31;46.38
60307;BME280;46155;52.364;6.580;2023-06-19T14:46:52;101013.56;;;26.24;47.14
60307;BME280;46155;52.364;6.580;2023-06-19T14:49:18;101007.28;;;26.29;48.07
60307;BME280;46155;52.364;6.580;2023-06-19T14:51:44;101005.47;;;26.38;47.84
60307;BME280;46155;52.364;6.580;2023-06-19T14:54:09;101000.09;;;26.39;47.64
60307;BME280;46155;52.364;6.580;2023-06-19T14:56:34;100996.50;;;26.45;46.97
60307;BME280;46155;52.364;6.580;2023-06-19T14:59:00;100997.38;;;26.42;45.77
60307;BME280;46155;52.364;6.580;2023-06-19T15:01:25;101003.69;;;26.34;45.10
60307;BME280;46155;52.364;6.580;2023-06-19T15:03:51;101002.78;;;26.45;46.33
60307;BME280;46155;52.364;6.580;2023-06-19T15:06:17;101006.34;;;26.54;46.24
60307;BME280;46155;52.364;6.580;2023-06-19T15:08:42;101014.41;;;26.54;46.02
60307;BME280;46155;52.364;6.580;2023-06-19T15:11:07;101009.97;;;26.43;44.06
60307;BME280;46155;52.364;6.580;2023-06-19T15:13:33;101008.19;;;26.33;43.75
60307;BME280;46155;52.364;6.580;2023-06-19T15:15:58;101007.28;;;26.23;43.24
60307;BME280;46155;52.364;6.580;2023-06-19T15:18:25;101002.81;;;26.30;44.35
60307;BME280;46155;52.364;6.580;2023-06-19T15:20:51;100997.41;;;26.21;45.48
60307;BME280;46155;52.364;6.580;2023-06-19T15:23:16;100997.41;;;26.24;45.94
60307;BME280;46155;52.364;6.580;2023-06-19T15:25:42;100994.75;;;26.28;46.82
60307;BME280;46155;52.364;6.580;2023-06-19T15:28:08;101009.06;;;26.32;47.23
60307;BME280;46155;52.364;6.580;2023-06-19T15:30:33;100999.22;;;26.22;46.86
60307;BME280;46155;52.364;6.580;2023-06-19T15:32:58;100997.44;;;26.27;46.92
60307;BME280;46155;52.364;6.580;2023-06-19T15:35:25;100998.34;;;26.20;47.20
60307;BME280;46155;52.364;6.580;2023-06-19T15:37:50;101000.13;;;26.16;46.92
60307;BME280;46155;52.364;6.580;2023-06-19T15:40:16;100995.63;;;26.17;46.45
60307;BME280;46155;52.364;6.580;2023-06-19T15:42:41;100991.16;;;26.22;47.40
60307;BME280;46155;52.364;6.580;2023-06-19T15:45:07;100991.16;;;26.17;48.12
60307;BME280;46155;52.364;6.580;2023-06-19T15:47:32;100993.84;;;26.16;48.49
60307;BME280;46155;52.364;6.580;2023-06-19T15:49:59;100988.47;;;26.16;47.85
60307;BME280;46155;52.364;6.580;2023-06-19T15:52:26;100990.25;;;26.17;47.43